sensor_id;sensor_type;location;lat;lon;timestamp;temperature;humidity
2623;DHT22;1321;48.690;9.022;2022-11-02T00:01:25;11.60;1.00
2623;DHT22;1321;48.690;9.022;2022-11-02T00:03:53;11.70;1.00
2623;DHT22;1321;48.690;9.022;2022-11-02T00:06:23;11.60;99.90
2623;DHT22;1321;48.690;9.022;2022-11-02T00:08:51;11.70;40.90
2623;DHT22;1321;48.690;9.022;2022-11-02T00:11:19;11.80;99.90
2623;DHT22;1321;48.690;9.022;2022-11-02T00:13:47;11.90;99.90
2623;DHT22;1321;48.690;9.022;2022-11-02T00:16:17;12.00;99.90
2623;DHT22;1321;48.690;9.022;2022-11-02T00:18:48;12.00;96.30
2623;DHT22;1321;48.690;9.022;2022-11-02T00:21:18;12.20;83.60
2623;DHT22;1321;48.690;9.022;2022-11-02T00:23:48;12.20;30.60
2623;DHT22;1321;48.690;9.022;2022-11-02T00:26:17;12.10;7.70
2623;DHT22;1321;48.690;9.022;2022-11-02T00:28:46;12.10;45.90
2623;DHT22;1321;48.690;9.022;2022-11-02T00:31:14;12.20;16.20
2623;DHT22;1321;48.690;9.022;2022-11-02T00:33:42;12.20;50.60
2623;DHT22;1321;48.690;9.022;2022-11-02T00:36:10;12.20;36.50
2623;DHT22;1321;48.690;9.022;2022-11-02T00:38:38;12.20;25.60
2623;DHT22;1321;48.690;9.022;2022-11-02T00:41:08;12.30;29.10
2623;DHT22;1321;48.690;9.022;2022-11-02T00:43:36;12.30;10.10
2623;DHT22;1321;48.690;9.022;2022-11-02T00:46:04;12.30;10.30
2623;DHT22;1321;48.690;9.022;2022-11-02T00:48:32;12.30;1.00
2623;DHT22;1321;48.690;9.022;2022-11-02T00:51:00;12.30;1.00
2623;DHT22;1321;48.690;9.022;2022-11-02T00:53:28;12.20;42.60
2623;DHT22;1321;48.690;9.022;2022-11-02T00:55:57;12.30;20.20
2623;DHT22;1321;48.690;9.022;2022-11-02T00:58:26;12.40;1.00
2623;DHT22;1321;48.690;9.022;2022-11-02T01:00:54;12.40;1.00
2623;DHT22;1321;48.690;9.022;2022-11-02T01:03:23;12.30;1.00
2623;DHT22;1321;48.690;9.022;2022-11-02T01:05:51;12.30;1.00
2623;DHT22;1321;48.690;9.022;2022-11-02T01:08:19;12.30;1.00
2623;DHT22;1321;48.690;9.022;2022-11-02T01:10:47;12.30;1.00
2623;DHT22;1321;48.690;9.022;2022-11-02T01:13:16;12.40;1.00
2623;DHT22;1321;48.690;9.022;2022-11-02T01:15:45;12.40;1.00
2623;DHT22;1321;48.690;9.022;2022-11-02T01:18:13;12.40;1.00
2623;DHT22;1321;48.690;9.022;2022-11-02T01:20:41;12.30;1.00
2623;DHT22;1321;48.690;9.022;2022-11-02T01:23:09;12.30;1.00
2623;DHT22;1321;48.690;9.022;2022-11-02T01:25:41;12.40;1.00
2623;DHT22;1321;48.690;9.022;2022-11-02T01:28:11;12.50;1.00
2623;DHT22;1321;48.690;9.022;2022-11-02T01:30:39;12.40;1.00
2623;DHT22;1321;48.690;9.022;2022-11-02T01:33:08;12.30;4.70
2623;DHT22;1321;48.690;9.022;2022-11-02T01:35:37;12.20;1.00
2623;DHT22;1321;48.690;9.022;2022-11-02T01:38:05;12.10;92.10
2623;DHT22;1321;48.690;9.022;2022-11-02T01:40:34;12.20;99.90
2623;DHT22;1321;48.690;9.022;2022-11-02T01:43:18;12.10;99.90
2623;DHT22;1321;48.690;9.022;2022-11-02T01:45:47;12.10;99.90
2623;DHT22;1321;48.690;9.022;2022-11-02T01:48:17;12.10;99.90
2623;DHT22;1321;48.690;9.022;2022-11-02T01:50:48;12.30;99.90
2623;DHT22;1321;48.690;9.022;2022-11-02T01:53:16;12.40;30.80
2623;DHT22;1321;48.690;9.022;2022-11-02T01:55:44;12.40;60.30
2623;DHT22;1321;48.690;9.022;2022-11-02T01:58:13;12.30;77.70
2623;DHT22;1321;48.690;9.022;2022-11-02T02:00:41;12.30;99.90
2623;DHT22;1321;48.690;9.022;2022-11-02T02:03:11;12.30;99.90
2623;DHT22;1321;48.690;9.022;2022-11-02T02:05:47;12.30;99.90
2623;DHT22;1321;48.690;9.022;2022-11-02T02:08:19;12.20;99.90
2623;DHT22;1321;48.690;9.022;2022-11-02T02:10:47;12.20;99.90
2623;DHT22;1321;48.690;9.022;2022-11-02T02:13:16;12.30;99.90
2623;DHT22;1321;48.690;9.022;2022-11-02T02:15:49;12.20;99.90
2623;DHT22;1321;48.690;9.022;2022-11-02T02:18:24;12.10;99.90
2623;DHT22;1321;48.690;9.022;2022-11-02T02:21:11;12.10;99.90
2623;DHT22;1321;48.690;9.022;2022-11-02T02:24:13;12.20;99.90
2623;DHT22;1321;48.690;9.022;2022-11-02T02:27:01;12.20;99.90
2623;DHT22;1321;48.690;9.022;2022-11-02T02:32:37;12.20;99.90
2623;DHT22;1321;48.690;9.022;2022-11-02T02:35:13;12.30;99.90
2623;DHT22;1321;48.690;9.022;2022-11-02T02:37:46;12.30;99.90
2623;DHT22;1321;48.690;9.022;2022-11-02T02:40:19;12.40;99.90
2623;DHT22;1321;48.690;9.022;2022-11-02T02:42:52;12.40;99.90
2623;DHT22;1321;48.690;9.022;2022-11-02T02:45:28;12.40;99.90
2623;DHT22;1321;48.690;9.022;2022-11-02T02:48:01;12.40;99.90
2623;DHT22;1321;48.690;9.022;2022-11-02T02:50:36;12.40;99.90
2623;DHT22;1321;48.690;9.022;2022-11-02T02:53:07;12.40;99.90
2623;DHT22;1321;48.690;9.022;2022-11-02T02:55:38;12.30;99.90
2623;DHT22;1321;48.690;9.022;2022-11-02T02:58:12;12.30;99.90
2623;DHT22;1321;48.690;9.022;2022-11-02T03:00:44;12.20;99.90
2623;DHT22;1321;48.690;9.022;2022-11-02T03:03:16;12.30;99.90
2623;DHT22;1321;48.690;9.022;2022-11-02T03:05:58;12.20;99.90
2623;DHT22;1321;48.690;9.022;2022-11-02T03:08:29;12.30;97.70
2623;DHT22;1321;48.690;9.022;2022-11-02T03:11:03;12.40;99.70
2623;DHT22;1321;48.690;9.022;2022-11-02T03:13:41;12.20;99.90
2623;DHT22;1321;48.690;9.022;2022-11-02T03:16:26;12.10;99.90
2623;DHT22;1321;48.690;9.022;2022-11-02T03:19:05;12.20;99.90
2623;DHT22;1321;48.690;9.022;2022-11-02T03:21:39;12.20;99.90
2623;DHT22;1321;48.690;9.022;2022-11-02T03:24:12;12.20;99.90
2623;DHT22;1321;48.690;9.022;2022-11-02T03:26:46;12.00;99.90
2623;DHT22;1321;48.690;9.022;2022-11-02T03:29:19;12.20;99.90
2623;DHT22;1321;48.690;9.022;2022-11-02T03:31:54;12.20;99.90
2623;DHT22;1321;48.690;9.022;2022-11-02T03:34:26;12.40;55.00
2623;DHT22;1321;48.690;9.022;2022-11-02T03:37:00;12.30;19.40
2623;DHT22;1321;48.690;9.022;2022-11-02T03:39:33;12.30;6.90
2623;DHT22;1321;48.690;9.022;2022-11-02T03:42:03;12.50;1.00
2623;DHT22;1321;48.690;9.022;2022-11-02T03:44:36;12.40;1.00
2623;DHT22;1321;48.690;9.022;2022-11-02T03:47:10;12.30;1.00
2623;DHT22;1321;48.690;9.022;2022-11-02T03:49:40;12.30;1.00
2623;DHT22;1321;48.690;9.022;2022-11-02T03:52:11;12.30;1.00
2623;DHT22;1321;48.690;9.022;2022-11-02T03:54:46;12.50;1.00
2623;DHT22;1321;48.690;9.022;2022-11-02T03:57:18;12.30;1.00
2623;DHT22;1321;48.690;9.022;2022-11-02T03:59:48;12.20;1.00
2623;DHT22;1321;48.690;9.022;2022-11-02T04:02:18;12.20;1.00
2623;DHT22;1321;48.690;9.022;2022-11-02T04:04:48;12.20;1.00
2623;DHT22;1321;48.690;9.022;2022-11-02T04:07:19;12.20;1.00
2623;DHT22;1321;48.690;9.022;2022-11-02T04:09:49;12.20;1.00
2623;DHT22;1321;48.690;9.022;2022-11-02T04:12:17;12.20;1.00
2623;DHT22;1321;48.690;9.022;2022-11-02T04:15:03;12.40;1.00
2623;DHT22;1321;48.690;9.022;2022-11-02T04:17:32;12.30;1.00
2623;DHT22;1321;48.690;9.022;2022-11-02T04:20:18;12.40;1.00
2623;DHT22;1321;48.690;9.022;2022-11-02T04:22:46;12.50;1.00
2623;DHT22;1321;48.690;9.022;2022-11-02T04:25:31;12.40;1.00
2623;DHT22;1321;48.690;9.022;2022-11-02T04:28:07;12.20;1.00
2623;DHT22;1321;48.690;9.022;2022-11-02T04:30:35;12.10;1.00
2623;DHT22;1321;48.690;9.022;2022-11-02T04:33:04;12.10;1.00
2623;DHT22;1321;48.690;9.022;2022-11-02T04:35:50;12.20;1.00
2623;DHT22;1321;48.690;9.022;2022-11-02T04:38:18;12.20;1.00
2623;DHT22;1321;48.690;9.022;2022-11-02T04:41:04;12.10;1.00
2623;DHT22;1321;48.690;9.022;2022-11-02T04:43:50;12.20;1.00
2623;DHT22;1321;48.690;9.022;2022-11-02T04:46:19;12.10;1.00
2623;DHT22;1321;48.690;9.022;2022-11-02T04:48:49;12.10;1.00
2623;DHT22;1321;48.690;9.022;2022-11-02T04:51:18;12.20;1.00
2623;DHT22;1321;48.690;9.022;2022-11-02T04:53:47;12.20;1.00
2623;DHT22;1321;48.690;9.022;2022-11-02T04:56:15;12.10;1.00
2623;DHT22;1321;48.690;9.022;2022-11-02T04:58:47;11.90;1.00
2623;DHT22;1321;48.690;9.022;2022-11-02T05:01:17;12.00;1.00
2623;DHT22;1321;48.690;9.022;2022-11-02T05:03:46;12.10;1.00
2623;DHT22;1321;48.690;9.022;2022-11-02T05:06:16;12.00;1.00
2623;DHT22;1321;48.690;9.022;2022-11-02T05:08:44;12.00;1.00
2623;DHT22;1321;48.690;9.022;2022-11-02T05:11:12;11.80;1.00
2623;DHT22;1321;48.690;9.022;2022-11-02T05:13:41;11.80;1.00
2623;DHT22;1321;48.690;9.022;2022-11-02T05:16:11;11.80;1.00
2623;DHT22;1321;48.690;9.022;2022-11-02T05:18:40;11.70;1.00
2623;DHT22;1321;48.690;9.022;2022-11-02T05:21:09;11.80;1.00
2623;DHT22;1321;48.690;9.022;2022-11-02T05:23:39;11.80;1.00
2623;DHT22;1321;48.690;9.022;2022-11-02T05:26:10;11.80;1.00
2623;DHT22;1321;48.690;9.022;2022-11-02T05:28:39;11.90;1.00
2623;DHT22;1321;48.690;9.022;2022-11-02T05:31:07;11.90;1.00
2623;DHT22;1321;48.690;9.022;2022-11-02T05:33:36;11.80;1.00
2623;DHT22;1321;48.690;9.022;2022-11-02T05:36:05;11.90;1.00
2623;DHT22;1321;48.690;9.022;2022-11-02T05:38:33;12.00;1.00
2623;DHT22;1321;48.690;9.022;2022-11-02T05:41:02;12.20;1.00
2623;DHT22;1321;48.690;9.022;2022-11-02T05:43:30;12.30;1.00
2623;DHT22;1321;48.690;9.022;2022-11-02T05:46:00;12.40;1.00
2623;DHT22;1321;48.690;9.022;2022-11-02T05:48:30;12.30;1.00
2623;DHT22;1321;48.690;9.022;2022-11-02T05:51:00;12.30;1.00
2623;DHT22;1321;48.690;9.022;2022-11-02T05:53:29;12.30;1.00
2623;DHT22;1321;48.690;9.022;2022-11-02T05:56:00;12.10;1.00
2623;DHT22;1321;48.690;9.022;2022-11-02T05:58:30;12.10;1.00
2623;DHT22;1321;48.690;9.022;2022-11-02T06:00:59;12.10;1.00
2623;DHT22;1321;48.690;9.022;2022-11-02T06:03:27;12.00;1.00
2623;DHT22;1321;48.690;9.022;2022-11-02T06:05:55;11.90;1.00
2623;DHT22;1321;48.690;9.022;2022-11-02T06:08:24;11.90;1.00
2623;DHT22;1321;48.690;9.022;2022-11-02T06:10:52;11.80;1.00
2623;DHT22;1321;48.690;9.022;2022-11-02T06:13:21;11.90;1.00
2623;DHT22;1321;48.690;9.022;2022-11-02T06:15:50;11.90;1.00
2623;DHT22;1321;48.690;9.022;2022-11-02T06:18:18;11.90;1.00
2623;DHT22;1321;48.690;9.022;2022-11-02T06:20:46;11.90;1.00
2623;DHT22;1321;48.690;9.022;2022-11-02T06:23:14;11.90;1.00
2623;DHT22;1321;48.690;9.022;2022-11-02T06:25:49;11.90;1.00
2623;DHT22;1321;48.690;9.022;2022-11-02T06:28:18;11.90;1.00
2623;DHT22;1321;48.690;9.022;2022-11-02T06:30:46;11.90;1.00
2623;DHT22;1321;48.690;9.022;2022-11-02T06:33:16;12.20;1.00
2623;DHT22;1321;48.690;9.022;2022-11-02T06:35:45;12.20;1.00
2623;DHT22;1321;48.690;9.022;2022-11-02T06:38:13;12.20;1.00
2623;DHT22;1321;48.690;9.022;2022-11-02T06:40:42;12.30;1.00
2623;DHT22;1321;48.690;9.022;2022-11-02T06:43:10;12.50;1.00
2623;DHT22;1321;48.690;9.022;2022-11-02T06:45:43;12.60;1.00
2623;DHT22;1321;48.690;9.022;2022-11-02T06:48:12;12.70;1.00
2623;DHT22;1321;48.690;9.022;2022-11-02T06:50:42;12.80;1.00
2623;DHT22;1321;48.690;9.022;2022-11-02T06:53:10;12.80;1.00
2623;DHT22;1321;48.690;9.022;2022-11-02T06:55:38;12.80;1.00
2623;DHT22;1321;48.690;9.022;2022-11-02T06:58:06;12.80;1.00
2623;DHT22;1321;48.690;9.022;2022-11-02T07:00:35;12.70;1.00
2623;DHT22;1321;48.690;9.022;2022-11-02T07:03:05;12.80;1.00
2623;DHT22;1321;48.690;9.022;2022-11-02T07:05:34;12.90;1.00
2623;DHT22;1321;48.690;9.022;2022-11-02T07:08:04;12.90;1.00
2623;DHT22;1321;48.690;9.022;2022-11-02T07:10:32;13.00;1.00
2623;DHT22;1321;48.690;9.022;2022-11-02T07:13:02;13.00;1.00
2623;DHT22;1321;48.690;9.022;2022-11-02T07:15:30;13.00;1.00
2623;DHT22;1321;48.690;9.022;2022-11-02T07:17:58;13.10;1.00
2623;DHT22;1321;48.690;9.022;2022-11-02T07:20:27;13.00;1.00
2623;DHT22;1321;48.690;9.022;2022-11-02T07:22:57;13.10;1.00
2623;DHT22;1321;48.690;9.022;2022-11-02T07:25:28;13.10;1.00
2623;DHT22;1321;48.690;9.022;2022-11-02T07:27:57;13.30;1.00
2623;DHT22;1321;48.690;9.022;2022-11-02T07:30:26;13.20;1.00
2623;DHT22;1321;48.690;9.022;2022-11-02T07:32:55;13.20;1.00
2623;DHT22;1321;48.690;9.022;2022-11-02T07:35:23;13.30;1.00
2623;DHT22;1321;48.690;9.022;2022-11-02T07:37:55;13.30;1.00
2623;DHT22;1321;48.690;9.022;2022-11-02T07:40:24;13.40;1.00
2623;DHT22;1321;48.690;9.022;2022-11-02T07:42:55;13.50;1.00
2623;DHT22;1321;48.690;9.022;2022-11-02T07:45:23;13.50;1.00
2623;DHT22;1321;48.690;9.022;2022-11-02T07:47:51;13.50;1.00
2623;DHT22;1321;48.690;9.022;2022-11-02T07:50:21;13.50;1.00
2623;DHT22;1321;48.690;9.022;2022-11-02T07:52:51;13.60;1.00
2623;DHT22;1321;48.690;9.022;2022-11-02T07:55:21;13.80;1.00
2623;DHT22;1321;48.690;9.022;2022-11-02T07:57:52;13.80;1.00
2623;DHT22;1321;48.690;9.022;2022-11-02T08:00:22;14.10;1.00
2623;DHT22;1321;48.690;9.022;2022-11-02T08:02:53;14.20;1.00
2623;DHT22;1321;48.690;9.022;2022-11-02T08:05:22;14.30;1.00
2623;DHT22;1321;48.690;9.022;2022-11-02T08:07:58;14.40;1.00
2623;DHT22;1321;48.690;9.022;2022-11-02T08:10:26;14.50;1.00
2623;DHT22;1321;48.690;9.022;2022-11-02T08:12:58;14.80;1.00
2623;DHT22;1321;48.690;9.022;2022-11-02T08:15:27;15.00;1.00
2623;DHT22;1321;48.690;9.022;2022-11-02T08:17:59;15.00;1.00
2623;DHT22;1321;48.690;9.022;2022-11-02T08:20:29;15.10;1.00
2623;DHT22;1321;48.690;9.022;2022-11-02T08:22:57;15.10;1.00
2623;DHT22;1321;48.690;9.022;2022-11-02T08:25:26;15.00;1.00
2623;DHT22;1321;48.690;9.022;2022-11-02T08:27:55;15.10;1.00
2623;DHT22;1321;48.690;9.022;2022-11-02T08:30:24;15.30;1.00
2623;DHT22;1321;48.690;9.022;2022-11-02T08:32:54;15.40;1.00
2623;DHT22;1321;48.690;9.022;2022-11-02T08:35:23;15.30;1.00
2623;DHT22;1321;48.690;9.022;2022-11-02T08:37:54;15.20;1.00
2623;DHT22;1321;48.690;9.022;2022-11-02T08:40:23;15.30;1.00
2623;DHT22;1321;48.690;9.022;2022-11-02T08:42:55;15.30;1.00
2623;DHT22;1321;48.690;9.022;2022-11-02T08:45:23;15.40;1.00
2623;DHT22;1321;48.690;9.022;2022-11-02T08:47:53;15.40;1.00
2623;DHT22;1321;48.690;9.022;2022-11-02T08:50:23;15.40;1.00
2623;DHT22;1321;48.690;9.022;2022-11-02T08:52:51;15.40;1.00
2623;DHT22;1321;48.690;9.022;2022-11-02T08:55:20;15.60;1.00
2623;DHT22;1321;48.690;9.022;2022-11-02T08:57:49;15.60;1.00
2623;DHT22;1321;48.690;9.022;2022-11-02T09:00:20;15.80;1.00
2623;DHT22;1321;48.690;9.022;2022-11-02T09:03:02;15.90;1.00
2623;DHT22;1321;48.690;9.022;2022-11-02T09:05:32;16.00;1.00
2623;DHT22;1321;48.690;9.022;2022-11-02T09:08:02;16.00;1.00
2623;DHT22;1321;48.690;9.022;2022-11-02T09:10:32;15.90;1.00
2623;DHT22;1321;48.690;9.022;2022-11-02T09:13:03;16.00;1.00
2623;DHT22;1321;48.690;9.022;2022-11-02T09:15:34;16.00;1.00
2623;DHT22;1321;48.690;9.022;2022-11-02T09:18:05;16.00;99.90
2623;DHT22;1321;48.690;9.022;2022-11-02T09:20:34;15.90;99.90
2623;DHT22;1321;48.690;9.022;2022-11-02T09:23:02;15.70;99.90
2623;DHT22;1321;48.690;9.022;2022-11-02T09:25:31;15.60;99.90
2623;DHT22;1321;48.690;9.022;2022-11-02T09:27:59;15.50;99.90
2623;DHT22;1321;48.690;9.022;2022-11-02T09:30:27;15.50;99.90
2623;DHT22;1321;48.690;9.022;2022-11-02T09:32:57;15.40;99.90
2623;DHT22;1321;48.690;9.022;2022-11-02T09:35:29;15.40;99.90
2623;DHT22;1321;48.690;9.022;2022-11-02T09:37:58;15.50;99.90
2623;DHT22;1321;48.690;9.022;2022-11-02T09:40:29;15.50;99.90
2623;DHT22;1321;48.690;9.022;2022-11-02T09:43:05;15.50;99.90
2623;DHT22;1321;48.690;9.022;2022-11-02T09:45:46;15.50;99.90
2623;DHT22;1321;48.690;9.022;2022-11-02T09:48:21;15.40;99.90
2623;DHT22;1321;48.690;9.022;2022-11-02T09:51:00;15.50;99.90
2623;DHT22;1321;48.690;9.022;2022-11-02T09:53:46;15.50;99.90
2623;DHT22;1321;48.690;9.022;2022-11-02T09:56:17;15.50;99.90
2623;DHT22;1321;48.690;9.022;2022-11-02T09:58:57;15.40;99.90
2623;DHT22;1321;48.690;9.022;2022-11-02T10:01:44;15.40;99.90
2623;DHT22;1321;48.690;9.022;2022-11-02T10:04:45;15.40;99.90
2623;DHT22;1321;48.690;9.022;2022-11-02T10:07:25;15.40;99.90
2623;DHT22;1321;48.690;9.022;2022-11-02T10:10:00;15.50;99.90
2623;DHT22;1321;48.690;9.022;2022-11-02T10:12:36;15.50;99.90
2623;DHT22;1321;48.690;9.022;2022-11-02T10:15:10;15.60;99.90
2623;DHT22;1321;48.690;9.022;2022-11-02T10:17:40;15.70;99.90
2623;DHT22;1321;48.690;9.022;2022-11-02T10:20:18;15.70;99.90
2623;DHT22;1321;48.690;9.022;2022-11-02T10:22:47;15.80;99.90
2623;DHT22;1321;48.690;9.022;2022-11-02T10:25:16;15.80;99.90
2623;DHT22;1321;48.690;9.022;2022-11-02T10:27:47;15.90;99.90
2623;DHT22;1321;48.690;9.022;2022-11-02T10:30:19;16.10;99.90
2623;DHT22;1321;48.690;9.022;2022-11-02T10:32:50;16.20;99.90
2623;DHT22;1321;48.690;9.022;2022-11-02T10:35:24;16.30;99.90
2623;DHT22;1321;48.690;9.022;2022-11-02T10:38:23;16.30;99.90
2623;DHT22;1321;48.690;9.022;2022-11-02T10:41:10;16.40;99.90
2623;DHT22;1321;48.690;9.022;2022-11-02T10:43:51;16.40;99.90
2623;DHT22;1321;48.690;9.022;2022-11-02T10:46:33;16.30;99.90
2623;DHT22;1321;48.690;9.022;2022-11-02T10:49:10;16.20;99.90
2623;DHT22;1321;48.690;9.022;2022-11-02T10:51:39;16.00;99.90
2623;DHT22;1321;48.690;9.022;2022-11-02T10:54:12;16.00;99.90
2623;DHT22;1321;48.690;9.022;2022-11-02T10:56:48;15.90;99.90
2623;DHT22;1321;48.690;9.022;2022-11-02T10:59:18;16.00;99.90
2623;DHT22;1321;48.690;9.022;2022-11-02T11:02:03;16.00;99.90
2623;DHT22;1321;48.690;9.022;2022-11-02T11:04:33;16.00;99.90
2623;DHT22;1321;48.690;9.022;2022-11-02T11:07:04;16.20;99.90
2623;DHT22;1321;48.690;9.022;2022-11-02T11:09:38;16.40;99.90
2623;DHT22;1321;48.690;9.022;2022-11-02T11:12:16;16.40;99.90
2623;DHT22;1321;48.690;9.022;2022-11-02T11:14:48;16.40;99.90
2623;DHT22;1321;48.690;9.022;2022-11-02T11:17:39;16.40;99.90
2623;DHT22;1321;48.690;9.022;2022-11-02T11:20:31;16.40;99.90
2623;DHT22;1321;48.690;9.022;2022-11-02T11:23:15;16.40;99.90
2623;DHT22;1321;48.690;9.022;2022-11-02T11:25:58;16.50;99.90
2623;DHT22;1321;48.690;9.022;2022-11-02T11:28:29;16.20;99.90
2623;DHT22;1321;48.690;9.022;2022-11-02T11:31:10;16.20;99.90
2623;DHT22;1321;48.690;9.022;2022-11-02T11:33:47;16.40;99.90
2623;DHT22;1321;48.690;9.022;2022-11-02T11:36:23;16.50;99.90
2623;DHT22;1321;48.690;9.022;2022-11-02T11:38:58;16.60;99.90
2623;DHT22;1321;48.690;9.022;2022-11-02T11:41:30;16.60;99.90
2623;DHT22;1321;48.690;9.022;2022-11-02T11:44:00;16.90;99.90
2623;DHT22;1321;48.690;9.022;2022-11-02T11:46:40;17.00;99.90
2623;DHT22;1321;48.690;9.022;2022-11-02T11:49:20;17.10;99.90
2623;DHT22;1321;48.690;9.022;2022-11-02T11:52:16;17.20;99.90
2623;DHT22;1321;48.690;9.022;2022-11-02T11:54:52;17.30;99.90
2623;DHT22;1321;48.690;9.022;2022-11-02T11:57:25;17.20;99.90
2623;DHT22;1321;48.690;9.022;2022-11-02T11:59:55;17.30;99.90
2623;DHT22;1321;48.690;9.022;2022-11-02T12:02:27;17.40;99.90
2623;DHT22;1321;48.690;9.022;2022-11-02T12:05:00;17.50;99.90
2623;DHT22;1321;48.690;9.022;2022-11-02T12:08:06;17.50;99.90
2623;DHT22;1321;48.690;9.022;2022-11-02T12:10:45;17.80;99.90
2623;DHT22;1321;48.690;9.022;2022-11-02T12:13:26;17.90;99.90
2623;DHT22;1321;48.690;9.022;2022-11-02T12:16:10;17.50;99.90
2623;DHT22;1321;48.690;9.022;2022-11-02T12:19:13;17.30;99.90
2623;DHT22;1321;48.690;9.022;2022-11-02T12:21:53;17.10;99.90
2623;DHT22;1321;48.690;9.022;2022-11-02T12:24:45;17.10;99.90
2623;DHT22;1321;48.690;9.022;2022-11-02T12:27:26;16.80;99.90
2623;DHT22;1321;48.690;9.022;2022-11-02T12:30:10;16.90;99.90
2623;DHT22;1321;48.690;9.022;2022-11-02T12:36:00;16.70;99.90
2623;DHT22;1321;48.690;9.022;2022-11-02T12:38:51;16.60;99.90
2623;DHT22;1321;48.690;9.022;2022-11-02T12:41:42;16.60;99.90
2623;DHT22;1321;48.690;9.022;2022-11-02T12:44:30;17.00;99.90
2623;DHT22;1321;48.690;9.022;2022-11-02T12:47:08;17.10;99.90
2623;DHT22;1321;48.690;9.022;2022-11-02T12:49:43;17.10;99.90
2623;DHT22;1321;48.690;9.022;2022-11-02T12:52:23;17.20;99.90
2623;DHT22;1321;48.690;9.022;2022-11-02T12:54:56;17.40;99.90
2623;DHT22;1321;48.690;9.022;2022-11-02T12:57:28;17.60;99.90
2623;DHT22;1321;48.690;9.022;2022-11-02T13:00:00;17.60;99.90
2623;DHT22;1321;48.690;9.022;2022-11-02T13:02:37;17.80;99.90
2623;DHT22;1321;48.690;9.022;2022-11-02T13:05:12;18.00;99.90
2623;DHT22;1321;48.690;9.022;2022-11-02T13:07:44;18.10;99.90
2623;DHT22;1321;48.690;9.022;2022-11-02T13:10:16;18.10;99.90
2623;DHT22;1321;48.690;9.022;2022-11-02T13:12:48;18.10;99.90
2623;DHT22;1321;48.690;9.022;2022-11-02T13:15:21;18.00;99.90
2623;DHT22;1321;48.690;9.022;2022-11-02T13:17:55;18.10;99.90
2623;DHT22;1321;48.690;9.022;2022-11-02T13:20:26;18.20;99.90
2623;DHT22;1321;48.690;9.022;2022-11-02T13:25:45;18.30;99.90
2623;DHT22;1321;48.690;9.022;2022-11-02T13:28:17;18.40;99.90
2623;DHT22;1321;48.690;9.022;2022-11-02T13:30:46;18.50;99.90
2623;DHT22;1321;48.690;9.022;2022-11-02T13:33:20;18.50;99.90
2623;DHT22;1321;48.690;9.022;2022-11-02T13:35:49;18.40;99.90
2623;DHT22;1321;48.690;9.022;2022-11-02T13:38:26;18.30;99.90
2623;DHT22;1321;48.690;9.022;2022-11-02T13:41:17;18.20;99.90
2623;DHT22;1321;48.690;9.022;2022-11-02T13:44:10;18.20;99.90
2623;DHT22;1321;48.690;9.022;2022-11-02T13:49:40;17.80;99.90
2623;DHT22;1321;48.690;9.022;2022-11-02T13:52:11;17.90;99.90
2623;DHT22;1321;48.690;9.022;2022-11-02T13:54:43;17.90;99.90
2623;DHT22;1321;48.690;9.022;2022-11-02T13:57:30;17.80;99.90
2623;DHT22;1321;48.690;9.022;2022-11-02T14:00:00;17.80;99.90
2623;DHT22;1321;48.690;9.022;2022-11-02T14:02:32;17.90;99.90
2623;DHT22;1321;48.690;9.022;2022-11-02T14:05:03;17.90;99.90
2623;DHT22;1321;48.690;9.022;2022-11-02T14:07:33;17.90;99.90
2623;DHT22;1321;48.690;9.022;2022-11-02T14:10:07;18.10;99.90
2623;DHT22;1321;48.690;9.022;2022-11-02T14:12:42;18.10;99.90
2623;DHT22;1321;48.690;9.022;2022-11-02T14:15:39;18.00;99.90
2623;DHT22;1321;48.690;9.022;2022-11-02T14:18:25;18.00;99.90
2623;DHT22;1321;48.690;9.022;2022-11-02T14:20:58;18.10;99.90
2623;DHT22;1321;48.690;9.022;2022-11-02T14:23:47;18.00;99.90
2623;DHT22;1321;48.690;9.022;2022-11-02T14:26:52;18.10;99.90
2623;DHT22;1321;48.690;9.022;2022-11-02T14:29:47;18.00;99.90
2623;DHT22;1321;48.690;9.022;2022-11-02T14:38:20;18.10;99.90
2623;DHT22;1321;48.690;9.022;2022-11-02T14:46:53;17.80;99.90
2623;DHT22;1321;48.690;9.022;2022-11-02T14:49:28;17.80;99.90
2623;DHT22;1321;48.690;9.022;2022-11-02T14:52:00;17.70;99.90
2623;DHT22;1321;48.690;9.022;2022-11-02T14:54:35;17.60;99.90
2623;DHT22;1321;48.690;9.022;2022-11-02T14:57:15;17.70;99.90
2623;DHT22;1321;48.690;9.022;2022-11-02T14:59:49;17.60;99.90
2623;DHT22;1321;48.690;9.022;2022-11-02T15:02:22;17.50;99.90
2623;DHT22;1321;48.690;9.022;2022-11-02T15:04:53;17.40;99.90
2623;DHT22;1321;48.690;9.022;2022-11-02T15:07:25;17.50;99.90
2623;DHT22;1321;48.690;9.022;2022-11-02T15:09:59;17.50;99.90
2623;DHT22;1321;48.690;9.022;2022-11-02T15:12:37;17.50;99.90
2623;DHT22;1321;48.690;9.022;2022-11-02T15:15:29;17.40;99.90
2623;DHT22;1321;48.690;9.022;2022-11-02T15:18:32;17.30;99.90
2623;DHT22;1321;48.690;9.022;2022-11-02T15:21:23;17.20;99.90
2623;DHT22;1321;48.690;9.022;2022-11-02T15:24:05;17.10;99.90
2623;DHT22;1321;48.690;9.022;2022-11-02T15:26:46;17.10;99.90
2623;DHT22;1321;48.690;9.022;2022-11-02T15:29:32;16.90;99.90
2623;DHT22;1321;48.690;9.022;2022-11-02T15:32:05;16.60;99.90
2623;DHT22;1321;48.690;9.022;2022-11-02T15:34:38;16.60;99.90
2623;DHT22;1321;48.690;9.022;2022-11-02T15:37:12;16.40;99.90
2623;DHT22;1321;48.690;9.022;2022-11-02T15:39:47;16.40;99.90
2623;DHT22;1321;48.690;9.022;2022-11-02T15:42:24;16.30;99.90
2623;DHT22;1321;48.690;9.022;2022-11-02T15:45:17;16.20;99.90
2623;DHT22;1321;48.690;9.022;2022-11-02T15:48:17;16.00;99.90
2623;DHT22;1321;48.690;9.022;2022-11-02T15:50:53;16.00;99.90
2623;DHT22;1321;48.690;9.022;2022-11-02T15:54:04;15.80;99.90
2623;DHT22;1321;48.690;9.022;2022-11-02T15:56:53;15.60;99.90
2623;DHT22;1321;48.690;9.022;2022-11-02T15:59:49;15.30;99.90
2623;DHT22;1321;48.690;9.022;2022-11-02T16:02:24;15.20;99.90
2623;DHT22;1321;48.690;9.022;2022-11-02T16:04:54;15.20;99.90
2623;DHT22;1321;48.690;9.022;2022-11-02T16:07:23;15.20;99.90
2623;DHT22;1321;48.690;9.022;2022-11-02T16:10:24;15.00;99.90
2623;DHT22;1321;48.690;9.022;2022-11-02T16:12:56;14.70;99.90
2623;DHT22;1321;48.690;9.022;2022-11-02T16:15:27;14.60;99.90
2623;DHT22;1321;48.690;9.022;2022-11-02T16:17:55;14.70;99.90
2623;DHT22;1321;48.690;9.022;2022-11-02T16:20:28;14.60;99.90
2623;DHT22;1321;48.690;9.022;2022-11-02T16:23:00;14.60;99.90
2623;DHT22;1321;48.690;9.022;2022-11-02T16:25:32;14.60;99.90
2623;DHT22;1321;48.690;9.022;2022-11-02T16:28:17;14.40;99.90
2623;DHT22;1321;48.690;9.022;2022-11-02T16:31:02;14.10;99.90
2623;DHT22;1321;48.690;9.022;2022-11-02T16:33:41;14.50;99.90
2623;DHT22;1321;48.690;9.022;2022-11-02T16:36:11;14.40;99.90
2623;DHT22;1321;48.690;9.022;2022-11-02T16:38:47;14.30;99.90
2623;DHT22;1321;48.690;9.022;2022-11-02T16:41:18;14.10;99.90
2623;DHT22;1321;48.690;9.022;2022-11-02T16:43:48;13.80;99.90
2623;DHT22;1321;48.690;9.022;2022-11-02T16:46:28;13.80;99.90
2623;DHT22;1321;48.690;9.022;2022-11-02T16:49:01;13.90;99.90
2623;DHT22;1321;48.690;9.022;2022-11-02T16:51:34;14.10;99.90
2623;DHT22;1321;48.690;9.022;2022-11-02T16:54:17;14.00;99.90
2623;DHT22;1321;48.690;9.022;2022-11-02T16:56:50;13.80;99.90
2623;DHT22;1321;48.690;9.022;2022-11-02T16:59:20;13.70;99.90
2623;DHT22;1321;48.690;9.022;2022-11-02T17:01:57;13.80;99.90
2623;DHT22;1321;48.690;9.022;2022-11-02T17:04:29;13.90;99.90
2623;DHT22;1321;48.690;9.022;2022-11-02T17:07:08;13.80;99.90
2623;DHT22;1321;48.690;9.022;2022-11-02T17:09:38;14.00;99.90
2623;DHT22;1321;48.690;9.022;2022-11-02T17:12:10;13.90;99.90
2623;DHT22;1321;48.690;9.022;2022-11-02T17:14:40;13.70;99.90